createdAt,value
2019-02-10T00:01:50.076Z,89.00
2019-02-10T00:06:56.372Z,88.90
2019-02-10T00:12:02.736Z,89.10
2019-02-10T00:17:08.995Z,89.50
2019-02-10T00:22:16.615Z,89.60
2019-02-10T00:27:23.106Z,89.80
2019-02-10T00:32:29.656Z,89.80
2019-02-10T00:37:35.936Z,90.20
2019-02-10T00:42:42.200Z,90.10
2019-02-10T00:47:48.535Z,90.50
2019-02-10T00:52:54.910Z,90.70
2019-02-10T00:58:01.241Z,90.90
2019-02-10T01:03:07.493Z,90.80
2019-02-10T01:08:13.807Z,91.10
2019-02-10T01:13:20.069Z,91.10
2019-02-10T01:18:26.325Z,91.50
2019-02-10T01:23:32.605Z,91.50
2019-02-10T01:28:38.918Z,92.30
2019-02-10T01:33:45.218Z,92.70
2019-02-10T01:38:51.657Z,92.90
2019-02-10T01:43:58.045Z,93.50
2019-02-10T01:49:05.345Z,93.70
2019-02-10T01:54:11.691Z,94.50
2019-02-10T01:59:17.936Z,95.10
2019-02-10T02:04:24.303Z,95.30
2019-02-10T02:09:30.654Z,95.70
2019-02-10T02:14:36.885Z,95.80
2019-02-10T02:19:43.139Z,95.70
2019-02-10T02:24:49.450Z,96.30
2019-02-10T02:29:55.766Z,95.20
2019-02-10T02:35:02.624Z,94.30
2019-02-10T02:40:11.174Z,94.80
2019-02-10T02:45:17.704Z,95.20
2019-02-10T02:50:24.021Z,95.80
2019-02-10T02:55:30.432Z,96.20
2019-02-10T03:00:36.684Z,96.30
2019-02-10T03:05:42.961Z,95.50
2019-02-10T03:10:49.285Z,96.00
2019-02-10T03:15:55.610Z,96.60
2019-02-10T03:21:01.915Z,96.60
2019-02-10T03:26:08.231Z,97.30
2019-02-10T03:31:15.122Z,97.40
2019-02-10T03:36:21.496Z,98.10
2019-02-10T03:41:27.735Z,98.20
2019-02-10T03:46:34.024Z,98.10
2019-02-10T03:51:40.335Z,98.50
2019-02-10T03:56:46.623Z,98.70
2019-02-10T04:01:53.018Z,98.60
2019-02-10T04:06:59.237Z,98.40
2019-02-10T04:12:05.511Z,98.70
2019-02-10T04:17:11.855Z,98.80
2019-02-10T04:22:18.151Z,99.30
2019-02-10T04:27:24.737Z,99.50
2019-02-10T04:32:31.005Z,99.60
2019-02-10T04:37:45.647Z,99.80
2019-02-10T04:42:45.142Z,99.90
2019-02-10T04:47:51.396Z,99.90
2019-02-10T04:52:57.774Z,99.90
2019-02-10T04:58:04.131Z,99.90
2019-02-10T05:03:10.407Z,99.90
2019-02-10T05:08:16.658Z,99.90
2019-02-10T05:13:22.922Z,99.90
2019-02-10T05:18:29.136Z,99.90
2019-02-10T05:23:35.408Z,99.90
2019-02-10T05:28:41.741Z,99.90
2019-02-10T05:33:48.058Z,99.90
2019-02-10T05:38:54.324Z,99.90
2019-02-10T05:44:00.618Z,99.90
2019-02-10T05:49:06.823Z,99.90
2019-02-10T05:54:13.031Z,99.90
2019-02-10T05:59:19.226Z,99.90
2019-02-10T06:04:25.510Z,99.90
2019-02-10T06:09:31.841Z,99.90
2019-02-10T06:14:38.103Z,99.90
2019-02-10T06:19:44.401Z,99.90
2019-02-10T06:24:50.659Z,99.90
2019-02-10T06:29:56.956Z,99.90
2019-02-10T06:35:03.187Z,99.90
2019-02-10T06:40:11.176Z,99.90
2019-02-10T06:45:17.473Z,99.90
2019-02-10T06:50:23.659Z,99.90
2019-02-10T06:55:29.957Z,99.90
2019-02-10T07:00:52.095Z,99.90
2019-02-10T07:05:59.271Z,99.90
2019-02-10T07:11:05.833Z,99.90
2019-02-10T07:16:31.087Z,99.90
2019-02-10T07:21:41.029Z,99.90
2019-02-10T07:27:29.433Z,99.90
2019-02-10T07:32:40.119Z,99.90
2019-02-10T07:38:12.093Z,99.90
2019-02-10T07:43:56.922Z,99.90
2019-02-10T07:49:39.051Z,99.90
2019-02-10T07:55:35.022Z,99.50
2019-02-10T08:01:15.178Z,99.10
2019-02-10T08:06:34.316Z,98.40
2019-02-10T08:11:59.910Z,98.90
2019-02-10T08:17:17.709Z,98.10
2019-02-10T08:23:19.158Z,98.50
2019-02-10T08:29:13.328Z,98.00
2019-02-10T08:35:00.168Z,98.20
2019-02-10T08:40:46.115Z,98.90
2019-02-10T08:45:59.124Z,98.90
2019-02-10T08:51:45.177Z,98.90
2019-02-10T08:56:52.441Z,98.80
2019-02-10T09:01:58.793Z,99.30
2019-02-10T09:07:05.749Z,99.30
2019-02-10T09:12:12.046Z,99.40
2019-02-10T09:17:18.275Z,99.90
2019-02-10T09:22:24.548Z,99.90
2019-02-10T09:27:30.991Z,99.90
2019-02-10T09:32:37.267Z,99.90
2019-02-10T09:37:43.632Z,99.90
2019-02-10T09:42:50.344Z,99.90
2019-02-10T09:47:56.928Z,99.90
2019-02-10T09:53:03.224Z,99.90
2019-02-10T09:58:09.421Z,99.90
2019-02-10T10:03:15.707Z,99.90
2019-02-10T10:08:21.983Z,99.90
2019-02-10T10:13:28.254Z,99.90
2019-02-10T10:18:34.607Z,99.10
2019-02-10T10:23:40.922Z,99.10
2019-02-10T10:28:47.396Z,99.30
2019-02-10T10:33:53.838Z,99.40
2019-02-10T10:39:00.405Z,99.10
2019-02-10T10:44:07.427Z,99.90
2019-02-10T10:49:13.697Z,99.90
2019-02-10T10:54:19.986Z,99.90
2019-02-10T10:59:26.373Z,99.90
2019-02-10T11:04:32.727Z,99.90
2019-02-10T11:09:38.995Z,99.90
2019-02-10T11:14:45.348Z,99.70
2019-02-10T11:19:51.643Z,98.70
2019-02-10T11:24:57.939Z,98.60
2019-02-10T11:30:04.441Z,98.80
2019-02-10T11:35:11.751Z,98.40
2019-02-10T11:40:18.027Z,98.30
2019-02-10T11:45:24.314Z,98.60
2019-02-10T11:50:30.646Z,98.60
2019-02-10T11:55:36.976Z,98.30
2019-02-10T12:00:43.315Z,98.20
2019-02-10T12:05:49.657Z,98.50
2019-02-10T12:10:56.022Z,98.40
2019-02-10T12:16:02.385Z,98.10
2019-02-10T12:21:09.421Z,98.40
2019-02-10T12:26:15.999Z,98.40
2019-02-10T12:31:22.426Z,98.60
2019-02-10T12:36:28.726Z,98.70
2019-02-10T12:41:35.084Z,98.80
2019-02-10T12:46:41.365Z,98.60
2019-02-10T12:51:47.613Z,98.40
2019-02-10T12:56:53.861Z,98.60
2019-02-10T13:02:00.167Z,99.20
2019-02-10T13:07:06.493Z,99.20
2019-02-10T13:12:12.812Z,99.30
2019-02-10T13:17:19.107Z,99.40
2019-02-10T13:22:25.674Z,99.80
2019-02-10T13:27:32.021Z,99.40
2019-02-10T13:32:38.400Z,99.00
2019-02-10T13:37:44.823Z,99.10
2019-02-10T13:42:51.145Z,99.60
2019-02-10T13:47:57.510Z,99.40
2019-02-10T13:53:03.802Z,99.10
2019-02-10T13:58:10.122Z,98.70
2019-02-10T14:03:16.360Z,98.80
2019-02-10T14:08:22.942Z,99.20
2019-02-10T14:13:29.306Z,99.20
2019-02-10T14:18:35.515Z,99.00
2019-02-10T14:23:41.725Z,98.10
2019-02-10T14:28:48.030Z,98.10
2019-02-10T14:33:54.313Z,98.10
2019-02-10T14:39:00.638Z,97.60
2019-02-10T14:44:06.920Z,97.00
2019-02-10T14:49:13.198Z,96.20
2019-02-10T14:54:19.503Z,96.00
2019-02-10T14:59:25.773Z,95.70
2019-02-10T15:04:32.182Z,96.20
2019-02-10T15:09:38.512Z,96.10
2019-02-10T15:14:44.739Z,96.10
2019-02-10T15:19:51.005Z,96.50
2019-02-10T15:24:57.357Z,95.60
2019-02-10T15:30:04.599Z,95.10
2019-02-10T15:35:11.142Z,94.70
2019-02-10T15:40:18.372Z,94.30
2019-02-10T15:45:24.687Z,94.10
2019-02-10T15:50:31.113Z,94.70
2019-02-10T15:55:37.401Z,95.00
2019-02-10T16:00:43.661Z,95.10
2019-02-10T16:05:50.069Z,95.30
2019-02-10T16:10:58.207Z,95.50
2019-02-10T16:16:05.483Z,95.80
2019-02-10T16:21:11.771Z,95.60
2019-02-10T16:26:18.024Z,95.60
2019-02-10T16:31:24.349Z,95.50
2019-02-10T16:36:30.638Z,96.30
2019-02-10T16:41:37.315Z,96.90
2019-02-10T16:46:43.599Z,96.60
2019-02-10T16:51:49.935Z,96.60
2019-02-10T16:56:56.307Z,96.50
2019-02-10T17:02:03.635Z,96.80
2019-02-10T17:07:09.908Z,96.50
2019-02-10T17:12:16.429Z,97.00
2019-02-10T17:17:22.836Z,97.70
2019-02-10T17:22:29.203Z,98.20
2019-02-10T17:27:35.703Z,98.40
2019-02-10T17:32:42.040Z,98.90
2019-02-10T17:37:48.383Z,99.40
2019-02-10T17:42:54.652Z,99.00
2019-02-10T17:48:00.888Z,99.00
2019-02-10T17:53:07.205Z,99.80
2019-02-10T17:58:13.524Z,99.60
2019-02-10T18:03:19.933Z,99.90
2019-02-10T18:08:26.367Z,99.90
2019-02-10T18:13:32.895Z,99.90
2019-02-10T18:18:55.060Z,99.90
2019-02-10T18:24:26.682Z,99.90
2019-02-10T18:29:59.007Z,99.90
2019-02-10T18:35:43.173Z,99.90
2019-02-10T18:41:12.130Z,99.90
2019-02-10T18:46:31.389Z,99.90
2019-02-10T18:52:02.141Z,99.90
2019-02-10T18:57:36.539Z,99.40
2019-02-10T19:03:05.799Z,99.80
2019-02-10T19:08:34.304Z,99.90
2019-02-10T19:13:56.484Z,99.90
2019-02-10T19:19:24.770Z,99.90
2019-02-10T19:24:40.805Z,99.90
2019-02-10T19:30:06.916Z,99.90
2019-02-10T19:35:44.433Z,99.90
2019-02-10T19:41:18.651Z,99.90
2019-02-10T19:46:48.977Z,99.90
2019-02-10T19:52:23.273Z,99.90
2019-02-10T19:57:47.960Z,99.90
2019-02-10T20:03:13.265Z,99.90
2019-02-10T20:08:38.533Z,99.90
2019-02-10T20:13:53.324Z,99.90
2019-02-10T20:19:24.618Z,99.90
2019-02-10T20:24:49.826Z,99.90
2019-02-10T20:30:17.970Z,99.90
2019-02-10T20:35:42.795Z,99.90
2019-02-10T20:41:13.659Z,99.90
2019-02-10T20:46:31.630Z,99.90
2019-02-10T20:51:50.292Z,99.90
2019-02-10T20:57:05.828Z,99.90
2019-02-10T21:02:29.604Z,99.90
2019-02-10T21:07:50.014Z,99.90
2019-02-10T21:13:21.066Z,99.90
2019-02-10T21:18:44.886Z,99.90
2019-02-10T21:24:02.723Z,99.90
2019-02-10T21:29:27.985Z,99.90
2019-02-10T21:34:53.151Z,99.90
2019-02-10T21:40:13.427Z,99.90
2019-02-10T21:45:41.527Z,99.90
2019-02-10T21:50:47.775Z,99.90
2019-02-10T21:55:54.001Z,99.90
2019-02-10T22:01:00.237Z,99.90
2019-02-10T22:06:06.485Z,99.90
2019-02-10T22:11:13.724Z,99.90
2019-02-10T22:16:20.083Z,99.90
2019-02-10T22:21:26.400Z,99.90
2019-02-10T22:26:32.692Z,99.90
2019-02-10T22:31:39.157Z,99.90
2019-02-10T22:36:45.608Z,99.90
2019-02-10T22:41:52.004Z,99.90
2019-02-10T22:46:58.351Z,99.90
2019-02-10T22:52:05.479Z,99.90
2019-02-10T22:57:11.723Z,99.90
2019-02-10T23:02:18.018Z,99.90
2019-02-10T23:07:24.250Z,99.90
2019-02-10T23:12:30.538Z,99.90
2019-02-10T23:17:36.824Z,99.90
2019-02-10T23:22:43.100Z,99.90
2019-02-10T23:27:49.308Z,99.90
2019-02-10T23:32:55.505Z,99.90
2019-02-10T23:38:01.698Z,99.90
2019-02-10T23:43:08.086Z,99.90
2019-02-10T23:48:14.326Z,99.90
2019-02-10T23:53:20.655Z,99.90
2019-02-10T23:58:26.879Z,99.90
